createdAt,value
2023-04-22T00:00:38.134Z,3.55
2023-04-22T00:03:28.852Z,5.45
2023-04-22T00:05:57.726Z,2.67
2023-04-22T00:08:26.574Z,3.03
2023-04-22T00:10:56.712Z,4.60
2023-04-22T00:13:25.103Z,3.13
2023-04-22T00:15:56.670Z,4.72
2023-04-22T00:18:29.078Z,5.28
2023-04-22T00:20:57.995Z,6.70
2023-04-22T00:23:26.444Z,2.83
2023-04-22T00:25:57.430Z,3.00
2023-04-22T00:28:26.080Z,3.13
2023-04-22T00:30:55.327Z,2.92
2023-04-22T00:33:32.865Z,4.25
2023-04-22T00:36:01.933Z,4.10
2023-04-22T00:38:30.746Z,2.63
2023-04-22T00:41:01.941Z,4.15
2023-04-22T00:43:34.965Z,4.15
2023-04-22T00:46:03.327Z,4.07
2023-04-22T00:48:33.238Z,6.07
2023-04-22T00:51:07.274Z,6.80
2023-04-22T00:53:36.118Z,3.95
2023-04-22T00:56:05.312Z,2.92
2023-04-22T00:58:36.540Z,3.28
2023-04-22T01:01:05.623Z,2.42
2023-04-22T01:03:44.666Z,4.00
2023-04-22T01:06:13.767Z,3.75
2023-04-22T01:08:44.118Z,2.97
2023-04-22T01:11:14.509Z,4.00
2023-04-22T01:13:45.248Z,3.40
2023-04-22T01:16:14.099Z,5.72
2023-04-22T01:18:44.100Z,3.25
2023-04-22T01:21:14.380Z,2.50
2023-04-22T01:23:46.464Z,3.78
2023-04-22T01:26:15.670Z,4.82
2023-04-22T01:28:46.056Z,4.20
2023-04-22T01:31:14.938Z,3.20
2023-04-22T01:33:45.798Z,3.33
2023-04-22T01:36:16.349Z,3.83
2023-04-22T01:38:50.144Z,3.38
2023-04-22T01:41:18.573Z,4.38
2023-04-22T01:43:50.801Z,4.55
2023-04-22T01:46:21.373Z,3.60
2023-04-22T01:48:51.911Z,5.97
2023-04-22T01:51:21.374Z,4.22
2023-04-22T01:53:50.511Z,3.38
2023-04-22T01:56:19.421Z,3.28
2023-04-22T01:58:47.977Z,3.35
2023-04-22T02:01:16.502Z,2.45
2023-04-22T02:03:49.320Z,3.80
2023-04-22T02:06:18.124Z,4.15
2023-04-22T02:08:46.512Z,2.90
2023-04-22T02:11:19.477Z,2.85
2023-04-22T02:13:48.119Z,2.28
2023-04-22T02:16:16.570Z,1.60
2023-04-22T02:18:45.603Z,2.80
2023-04-22T02:21:20.401Z,2.50
2023-04-22T02:23:50.040Z,2.78
2023-04-22T02:26:18.745Z,2.05
2023-04-22T02:28:47.605Z,2.42
2023-04-22T02:31:16.189Z,2.30
2023-04-22T02:33:50.498Z,2.88
2023-04-22T02:36:18.892Z,1.63
2023-04-22T02:38:48.440Z,2.10
2023-04-22T02:41:17.541Z,2.35
2023-04-22T02:43:46.498Z,1.75
2023-04-22T02:46:17.108Z,2.15
2023-04-22T02:48:46.294Z,1.52
2023-04-22T02:51:15.076Z,2.08
2023-04-22T02:53:44.055Z,2.55
2023-04-22T02:56:12.696Z,1.90
2023-04-22T02:58:42.825Z,2.22
2023-04-22T03:01:12.752Z,1.67
2023-04-22T03:03:43.937Z,3.85
2023-04-22T03:06:16.960Z,5.95
2023-04-22T03:08:45.461Z,3.53
2023-04-22T03:11:14.784Z,1.65
2023-04-22T03:13:44.044Z,1.77
2023-04-22T03:16:13.988Z,2.20
2023-04-22T03:18:42.923Z,1.80
2023-04-22T03:21:15.805Z,1.65
2023-04-22T03:23:44.251Z,2.22
2023-04-22T03:26:13.684Z,2.75
2023-04-22T03:28:43.614Z,3.25
2023-04-22T03:31:12.267Z,1.60
2023-04-22T03:33:40.894Z,2.75
2023-04-22T03:36:18.065Z,1.60
2023-04-22T03:38:52.048Z,1.90
2023-04-22T03:41:26.394Z,2.72
2023-04-22T03:43:59.598Z,1.40
2023-04-22T03:46:32.280Z,1.42
2023-04-22T03:49:12.628Z,2.00
2023-04-22T03:51:44.885Z,2.38
2023-04-22T03:54:17.991Z,1.85
2023-04-22T03:56:51.010Z,1.38
2023-04-22T03:59:21.098Z,1.80
2023-04-22T04:01:52.376Z,1.48
2023-04-22T04:04:24.545Z,1.88
2023-04-22T04:06:57.940Z,1.63
2023-04-22T04:09:28.607Z,1.40
2023-04-22T04:12:00.276Z,1.75
2023-04-22T04:14:33.792Z,1.90
2023-04-22T04:17:03.597Z,1.58
2023-04-22T04:19:37.078Z,1.23
2023-04-22T04:22:06.828Z,4.25
2023-04-22T04:24:42.653Z,1.67
2023-04-22T04:27:18.711Z,2.25
2023-04-22T04:29:55.956Z,1.80
2023-04-22T04:33:07.039Z,1.45
2023-04-22T04:35:38.344Z,1.88
2023-04-22T04:38:14.457Z,1.38
2023-04-22T04:40:45.491Z,3.95
2023-04-22T04:43:21.276Z,1.50
2023-04-22T04:45:56.461Z,1.17
2023-04-22T04:48:35.948Z,1.35
2023-04-22T04:51:10.077Z,2.13
2023-04-22T04:53:44.827Z,2.92
2023-04-22T04:56:16.829Z,1.70
2023-04-22T04:58:49.691Z,1.30
2023-04-22T05:01:25.372Z,1.27
2023-04-22T05:06:28.702Z,1.45
2023-04-22T05:09:03.948Z,1.23
2023-04-22T05:11:35.111Z,1.92
2023-04-22T05:14:08.073Z,1.30
2023-04-22T05:16:44.344Z,1.30
2023-04-22T05:19:18.483Z,1.20
2023-04-22T05:21:50.236Z,1.08
2023-04-22T05:24:18.996Z,0.90
2023-04-22T05:26:48.362Z,1.60
2023-04-22T05:29:24.941Z,1.73
2023-04-22T05:31:56.957Z,0.82
2023-04-22T05:34:26.391Z,1.20
2023-04-22T05:36:56.300Z,1.40
2023-04-22T05:39:26.137Z,1.30
2023-04-22T05:41:55.237Z,1.30
2023-04-22T05:44:26.759Z,1.17
2023-04-22T05:46:55.315Z,1.27
2023-04-22T05:49:26.096Z,1.95
2023-04-22T05:52:18.775Z,0.82
2023-04-22T05:55:04.181Z,1.42
2023-04-22T05:57:37.796Z,1.30
2023-04-22T06:00:11.939Z,1.50
2023-04-22T06:03:16.161Z,1.10
2023-04-22T06:05:45.219Z,0.60
2023-04-22T06:08:14.811Z,0.80
2023-04-22T06:10:43.078Z,1.35
2023-04-22T06:13:12.094Z,1.20
2023-04-22T06:15:42.631Z,1.83
2023-04-22T06:18:11.329Z,1.00
2023-04-22T06:20:40.393Z,1.10
2023-04-22T06:23:09.583Z,1.10
2023-04-22T06:25:39.904Z,0.82
2023-04-22T06:28:10.828Z,0.93
2023-04-22T06:30:41.271Z,1.63
2023-04-22T06:33:10.203Z,1.10
2023-04-22T06:35:41.280Z,0.70
2023-04-22T06:38:09.834Z,1.25
2023-04-22T06:40:46.255Z,1.40
2023-04-22T06:43:26.716Z,1.10
2023-04-22T06:46:21.259Z,0.85
2023-04-22T06:49:20.625Z,1.88
2023-04-22T06:52:09.782Z,0.93
2023-04-22T06:54:38.368Z,0.88
2023-04-22T06:57:10.153Z,1.45
2023-04-22T06:59:41.203Z,0.70
2023-04-22T07:02:10.084Z,1.10
2023-04-22T07:04:43.059Z,0.70
2023-04-22T07:07:12.211Z,0.80
2023-04-22T07:09:42.666Z,1.90
2023-04-22T07:12:13.146Z,0.82
2023-04-22T07:14:46.001Z,1.05
2023-04-22T07:17:14.770Z,0.98
2023-04-22T07:19:44.860Z,0.68
2023-04-22T07:22:14.179Z,1.15
2023-04-22T07:24:42.877Z,0.88
2023-04-22T07:27:11.749Z,0.50
2023-04-22T07:29:56.512Z,0.63
2023-04-22T07:32:27.266Z,1.60
2023-04-22T07:34:55.611Z,0.57
2023-04-22T07:37:24.562Z,0.70
2023-04-22T07:39:52.826Z,0.95
2023-04-22T07:42:21.812Z,0.80
2023-04-22T07:44:52.487Z,0.80
2023-04-22T07:47:21.082Z,0.82
2023-04-22T07:49:51.609Z,0.70
2023-04-22T07:52:20.977Z,2.17
2023-04-22T07:54:49.135Z,0.57
2023-04-22T07:57:17.317Z,0.82
2023-04-22T07:59:45.847Z,1.20
2023-04-22T08:02:15.065Z,1.17
2023-04-22T08:04:46.439Z,1.73
2023-04-22T08:07:30.959Z,1.35
2023-04-22T08:10:01.648Z,1.55
2023-04-22T08:12:34.027Z,1.20
2023-04-22T08:15:02.963Z,1.42
2023-04-22T08:17:32.486Z,1.33
2023-04-22T08:20:06.601Z,2.15
2023-04-22T08:22:39.747Z,0.80
2023-04-22T08:25:11.128Z,0.93
2023-04-22T08:30:15.258Z,2.03
2023-04-22T08:32:53.365Z,1.55
2023-04-22T08:35:24.741Z,0.98
2023-04-22T08:37:55.154Z,0.52
2023-04-22T08:40:24.449Z,0.70
2023-04-22T08:42:53.412Z,0.73
2023-04-22T08:45:22.258Z,2.47
2023-04-22T08:47:51.028Z,2.20
2023-04-22T08:50:22.368Z,1.50
2023-04-22T08:52:55.515Z,0.50
2023-04-22T08:55:24.605Z,1.88
2023-04-22T08:57:53.795Z,1.75
2023-04-22T09:00:22.438Z,2.03
2023-04-22T09:06:07.871Z,1.00
2023-04-22T09:08:39.593Z,0.80
2023-04-22T09:11:07.912Z,0.77
2023-04-22T09:13:39.539Z,2.08
2023-04-22T09:16:07.791Z,0.73
2023-04-22T09:18:45.999Z,0.85
2023-04-22T09:21:15.856Z,0.65
2023-04-22T09:23:52.018Z,1.05
2023-04-22T09:26:21.881Z,0.50
2023-04-22T09:28:52.814Z,1.27
2023-04-22T09:31:23.626Z,3.30
2023-04-22T09:34:00.688Z,1.50
2023-04-22T09:36:37.338Z,0.82
2023-04-22T09:39:07.575Z,1.13
2023-04-22T09:41:39.696Z,0.73
2023-04-22T09:44:12.830Z,1.73
2023-04-22T09:46:43.589Z,3.05
2023-04-22T09:49:16.928Z,0.70
2023-04-22T09:51:49.766Z,0.52
2023-04-22T09:56:54.694Z,1.30
2023-04-22T09:59:25.945Z,0.50
2023-04-22T10:02:00.163Z,0.93
2023-04-22T10:04:29.930Z,1.52
2023-04-22T10:06:58.410Z,0.60
2023-04-22T10:09:30.006Z,0.73
2023-04-22T10:12:02.005Z,2.75
2023-04-22T10:14:33.429Z,2.47
2023-04-22T10:17:05.000Z,0.70
2023-04-22T10:19:34.579Z,3.22
2023-04-22T10:22:04.468Z,0.98
2023-04-22T10:24:38.091Z,1.80
2023-04-22T10:27:11.606Z,1.23
2023-04-22T10:29:43.591Z,1.17
2023-04-22T10:32:12.066Z,1.25
2023-04-22T10:34:43.335Z,1.15
2023-04-22T10:37:12.462Z,0.90
2023-04-22T10:39:41.974Z,1.05
2023-04-22T10:42:15.415Z,1.02
2023-04-22T10:44:49.628Z,1.63
2023-04-22T10:47:41.872Z,0.80
2023-04-22T10:50:28.496Z,0.85
2023-04-22T10:52:57.523Z,3.58
2023-04-22T10:55:26.530Z,1.70
2023-04-22T10:57:54.878Z,1.05
2023-04-22T11:00:23.003Z,1.10
2023-04-22T11:03:06.585Z,1.30
2023-04-22T11:05:36.577Z,2.63
2023-04-22T11:08:27.889Z,1.00
2023-04-22T11:11:08.870Z,1.00
2023-04-22T11:13:37.417Z,0.73
2023-04-22T11:16:09.260Z,0.90
2023-04-22T11:18:42.941Z,1.65
2023-04-22T11:21:13.592Z,0.95
2023-04-22T11:23:50.961Z,2.97
2023-04-22T11:26:34.035Z,2.22
2023-04-22T11:29:05.637Z,0.70
2023-04-22T11:31:46.929Z,1.38
2023-04-22T11:34:16.590Z,0.80
2023-04-22T11:36:46.781Z,0.77
2023-04-22T11:39:18.590Z,2.08
2023-04-22T11:41:48.716Z,1.67
2023-04-22T11:44:17.496Z,1.30
2023-04-22T11:46:45.934Z,1.17
2023-04-22T11:49:18.127Z,0.77
2023-04-22T11:51:54.128Z,0.80
2023-04-22T11:54:32.426Z,0.80
2023-04-22T11:57:08.371Z,0.50
2023-04-22T11:59:36.957Z,2.97
2023-04-22T12:02:06.293Z,0.70
2023-04-22T12:04:43.101Z,1.27
2023-04-22T12:07:11.652Z,0.90
2023-04-22T12:09:42.908Z,0.98
2023-04-22T12:12:13.587Z,0.85
2023-04-22T12:14:46.541Z,0.63
2023-04-22T12:17:16.482Z,0.70
2023-04-22T12:19:48.213Z,1.83
2023-04-22T12:22:29.800Z,1.05
2023-04-22T12:25:01.656Z,0.80
2023-04-22T12:27:32.589Z,1.20
2023-04-22T12:30:01.634Z,1.10
2023-04-22T12:32:43.864Z,1.77
2023-04-22T12:35:12.094Z,3.20
2023-04-22T12:37:49.948Z,20.60
2023-04-22T12:40:19.184Z,1.02
2023-04-22T12:42:49.943Z,1.10
2023-04-22T12:45:18.088Z,1.25
2023-04-22T12:47:55.951Z,0.82
2023-04-22T12:50:25.554Z,0.80
2023-04-22T12:52:55.036Z,0.70
2023-04-22T12:55:23.769Z,4.03
2023-04-22T12:57:54.502Z,1.13
2023-04-22T13:00:24.332Z,3.03
2023-04-22T13:03:12.407Z,1.45
2023-04-22T13:05:43.138Z,1.30
2023-04-22T13:08:16.844Z,3.33
2023-04-22T13:10:45.120Z,3.42
2023-04-22T13:13:18.288Z,2.55
2023-04-22T13:15:54.072Z,2.70
2023-04-22T13:18:25.176Z,2.42
2023-04-22T13:20:54.999Z,1.65
2023-04-22T13:23:25.846Z,0.98
2023-04-22T13:25:54.964Z,1.42
2023-04-22T13:28:24.000Z,0.60
2023-04-22T13:30:53.050Z,4.40
2023-04-22T13:33:30.072Z,2.65
2023-04-22T13:36:01.806Z,4.38
2023-04-22T13:38:33.338Z,10.38
2023-04-22T13:41:03.248Z,3.15
2023-04-22T13:43:32.478Z,8.35
2023-04-22T13:46:01.463Z,4.05
2023-04-22T13:48:31.408Z,2.38
2023-04-22T13:51:02.179Z,4.20
2023-04-22T13:53:34.508Z,1.67
2023-04-22T13:56:03.712Z,2.15
2023-04-22T13:58:36.022Z,0.60
2023-04-22T14:01:04.668Z,1.95
2023-04-22T14:03:37.882Z,1.20
2023-04-22T14:06:11.285Z,3.15
2023-04-22T14:08:41.324Z,1.00
2023-04-22T14:11:09.573Z,1.25
2023-04-22T14:13:38.284Z,1.65
2023-04-22T14:16:10.019Z,0.50
2023-04-22T14:18:40.972Z,0.52
2023-04-22T14:21:10.284Z,0.93
2023-04-22T14:23:40.970Z,1.67
2023-04-22T14:26:11.218Z,3.50
2023-04-22T14:28:43.349Z,2.37
2023-04-22T14:31:12.123Z,2.55
2023-04-22T14:36:16.742Z,0.70
2023-04-22T14:38:51.244Z,1.38
2023-04-22T14:41:22.735Z,1.08
2023-04-22T14:43:51.110Z,0.70
2023-04-22T14:46:22.078Z,1.40
2023-04-22T14:48:55.444Z,1.83
2023-04-22T14:51:24.636Z,2.45
2023-04-22T14:53:55.464Z,1.33
2023-04-22T14:56:25.294Z,1.35
2023-04-22T14:58:54.249Z,2.38
2023-04-22T15:01:26.787Z,1.08
2023-04-22T15:03:55.818Z,0.80
2023-04-22T15:06:25.139Z,1.17
2023-04-22T15:09:00.849Z,1.30
2023-04-22T15:11:32.397Z,1.30
2023-04-22T15:14:00.834Z,1.35
2023-04-22T15:16:31.408Z,2.35
2023-04-22T15:19:01.135Z,1.65
2023-04-22T15:21:33.268Z,2.17
2023-04-22T15:24:05.137Z,1.20
2023-04-22T15:26:34.583Z,5.72
2023-04-22T15:29:02.948Z,1.23
2023-04-22T15:31:33.111Z,1.95
2023-04-22T15:34:02.014Z,1.85
2023-04-22T15:36:36.819Z,1.75
2023-04-22T15:39:06.709Z,1.30
2023-04-22T15:41:38.404Z,2.55
2023-04-22T15:44:08.736Z,1.20
2023-04-22T15:46:40.132Z,1.02
2023-04-22T15:49:09.143Z,1.02
2023-04-22T15:51:37.419Z,0.98
2023-04-22T15:54:13.011Z,1.13
2023-04-22T15:56:43.900Z,1.15
2023-04-22T15:59:16.948Z,1.23
2023-04-22T16:01:46.663Z,0.82
2023-04-22T16:04:15.581Z,1.17
2023-04-22T16:06:49.067Z,1.75
2023-04-22T16:09:21.861Z,1.92
2023-04-22T16:11:50.463Z,3.10
2023-04-22T16:14:23.701Z,1.90
2023-04-22T16:16:54.376Z,1.27
2023-04-22T16:19:24.856Z,1.25
2023-04-22T16:21:53.158Z,1.58
2023-04-22T16:24:21.707Z,1.60
2023-04-22T16:26:52.469Z,1.83
2023-04-22T16:29:20.708Z,1.40
2023-04-22T16:31:49.729Z,0.75
2023-04-22T16:34:18.192Z,0.70
2023-04-22T16:36:46.863Z,2.53
2023-04-22T16:39:15.779Z,4.13
2023-04-22T16:41:46.394Z,0.82
2023-04-22T16:44:18.022Z,5.63
2023-04-22T16:46:46.727Z,3.45
2023-04-22T16:49:14.853Z,0.90
2023-04-22T16:51:43.073Z,1.92
2023-04-22T16:54:11.778Z,1.95
2023-04-22T16:56:40.919Z,1.08
2023-04-22T16:59:14.477Z,1.30
2023-04-22T17:01:43.132Z,1.65
2023-04-22T17:04:12.442Z,1.15
2023-04-22T17:06:41.540Z,1.73
2023-04-22T17:09:10.816Z,1.52
2023-04-22T17:11:40.510Z,3.97
2023-04-22T17:14:09.549Z,2.55
2023-04-22T17:16:40.324Z,8.38
2023-04-22T17:19:09.281Z,6.38
2023-04-22T17:21:40.274Z,1.95
2023-04-22T17:24:09.405Z,1.70
2023-04-22T17:26:39.580Z,1.52
2023-04-22T17:29:07.756Z,1.73
2023-04-22T17:31:38.781Z,2.30
2023-04-22T17:34:07.122Z,1.73
2023-04-22T17:36:35.831Z,3.40
2023-04-22T17:39:06.669Z,2.92
2023-04-22T17:41:37.174Z,2.47
2023-04-22T17:44:08.811Z,5.63
2023-04-22T17:46:37.358Z,1.50
2023-04-22T17:49:07.230Z,1.65
2023-04-22T17:51:35.639Z,1.42
2023-04-22T17:54:07.175Z,2.10
2023-04-22T17:56:35.670Z,1.60
2023-04-22T17:59:04.339Z,1.70
2023-04-22T18:01:35.415Z,1.50
2023-04-22T18:04:03.757Z,3.70
2023-04-22T18:06:34.268Z,1.77
2023-04-22T18:09:06.388Z,1.92
2023-04-22T18:11:35.068Z,2.20
2023-04-22T18:14:04.010Z,2.00
2023-04-22T18:16:32.381Z,2.42
2023-04-22T18:19:02.200Z,2.72
2023-04-22T18:21:32.650Z,1.60
2023-04-22T18:24:03.789Z,1.30
2023-04-22T18:26:33.328Z,1.30
2023-04-22T18:29:05.503Z,1.60
2023-04-22T18:31:36.367Z,1.73
2023-04-22T18:34:08.142Z,3.33
2023-04-22T18:39:10.781Z,2.83
2023-04-22T18:41:40.050Z,1.67
2023-04-22T18:44:10.779Z,1.95
2023-04-22T18:46:44.715Z,1.77
2023-04-22T18:49:13.312Z,2.95
2023-04-22T18:51:42.370Z,1.95
2023-04-22T18:54:10.725Z,2.10
2023-04-22T18:56:39.895Z,2.28
2023-04-22T18:59:08.673Z,3.45
2023-04-22T19:01:37.145Z,5.13
2023-04-22T19:04:07.731Z,7.82
2023-04-22T19:06:40.403Z,2.38
2023-04-22T19:09:09.560Z,3.15
2023-04-22T19:11:43.732Z,4.28
2023-04-22T19:14:13.695Z,6.32
2023-04-22T19:16:42.211Z,3.25
2023-04-22T19:19:11.898Z,4.85
2023-04-22T19:21:41.819Z,1.98
2023-04-22T19:24:10.910Z,2.03
2023-04-22T19:26:42.175Z,2.28
2023-04-22T19:29:16.130Z,3.58
2023-04-22T19:31:44.800Z,2.13
2023-04-22T19:34:13.206Z,3.10
2023-04-22T19:36:44.265Z,3.15
2023-04-22T19:39:14.874Z,3.00
2023-04-22T19:41:43.700Z,3.60
2023-04-22T19:44:12.100Z,3.08
2023-04-22T19:46:43.928Z,2.78
2023-04-22T19:49:13.332Z,6.63
2023-04-22T19:51:45.634Z,5.07
2023-04-22T19:54:14.474Z,3.83
2023-04-22T19:56:44.008Z,4.35
2023-04-22T19:59:13.809Z,5.45
2023-04-22T20:01:44.671Z,4.55
2023-04-22T20:04:13.295Z,4.68
2023-04-22T20:06:44.747Z,4.25
2023-04-22T20:09:13.372Z,4.93
2023-04-22T20:11:42.670Z,4.65
2023-04-22T20:14:13.691Z,3.70
2023-04-22T20:16:43.094Z,5.13
2023-04-22T20:19:13.902Z,5.43
2023-04-22T20:21:45.296Z,5.25
2023-04-22T20:24:19.225Z,6.22
2023-04-22T20:26:50.258Z,7.18
2023-04-22T20:29:22.562Z,8.30
2023-04-22T20:31:59.089Z,7.70
2023-04-22T20:34:31.413Z,5.95
2023-04-22T20:37:03.077Z,10.15
2023-04-22T20:39:34.413Z,11.73
2023-04-22T20:42:05.724Z,7.75
2023-04-22T20:44:35.063Z,8.07
2023-04-22T20:47:04.132Z,10.23
2023-04-22T20:49:33.678Z,7.93
2023-04-22T20:52:02.310Z,5.88
2023-04-22T20:54:32.539Z,7.38
2023-04-22T20:57:06.412Z,13.27
2023-04-22T20:59:40.946Z,8.55
2023-04-22T21:02:10.415Z,6.88
2023-04-22T21:04:40.955Z,7.30
2023-04-22T21:07:12.253Z,8.35
2023-04-22T21:09:41.607Z,10.25
2023-04-22T21:12:10.967Z,8.07
2023-04-22T21:14:41.680Z,10.73
2023-04-22T21:17:19.366Z,11.68
2023-04-22T21:19:49.436Z,9.80
2023-04-22T21:22:21.972Z,14.38
2023-04-22T21:24:53.888Z,10.38
2023-04-22T21:27:24.644Z,10.48
2023-04-22T21:29:56.985Z,12.40
2023-04-22T21:32:26.716Z,11.77
2023-04-22T21:34:58.300Z,13.13
2023-04-22T21:37:30.252Z,15.98
2023-04-22T21:40:01.490Z,14.98
2023-04-22T21:42:34.081Z,16.13
2023-04-22T21:45:02.624Z,14.65
2023-04-22T21:47:47.879Z,17.00
2023-04-22T21:50:18.071Z,14.15
2023-04-22T21:52:50.903Z,14.95
2023-04-22T21:55:19.991Z,15.80
2023-04-22T21:57:48.364Z,20.63
2023-04-22T22:00:18.624Z,19.13
2023-04-22T22:03:08.982Z,13.32
2023-04-22T22:05:38.491Z,19.15
2023-04-22T22:08:09.482Z,20.23
2023-04-22T22:10:38.009Z,20.25
2023-04-22T22:13:11.354Z,21.58
2023-04-22T22:15:40.084Z,19.85
2023-04-22T22:18:08.629Z,22.00
2023-04-22T22:20:37.733Z,19.65
2023-04-22T22:23:06.017Z,24.45
2023-04-22T22:25:36.436Z,21.40
2023-04-22T22:28:05.794Z,22.95
2023-04-22T22:30:37.464Z,23.13
2023-04-22T22:33:25.037Z,23.88
2023-04-22T22:35:54.037Z,25.40
2023-04-22T22:38:24.564Z,27.67
2023-04-22T22:40:55.097Z,25.27
2023-04-22T22:43:23.453Z,25.67
2023-04-22T22:45:54.589Z,27.17
2023-04-22T22:48:25.017Z,26.42
2023-04-22T22:50:53.313Z,25.55
2023-04-22T22:53:23.800Z,22.75
2023-04-22T22:55:52.589Z,21.00
2023-04-22T22:58:20.995Z,27.17
2023-04-22T23:00:49.526Z,21.27
2023-04-22T23:03:23.199Z,26.60
2023-04-22T23:05:51.769Z,22.17
2023-04-22T23:08:19.964Z,23.40
2023-04-22T23:10:48.463Z,24.10
2023-04-22T23:13:17.060Z,27.60
2023-04-22T23:15:46.656Z,25.13
2023-04-22T23:18:17.505Z,26.30
2023-04-22T23:20:49.660Z,28.05
2023-04-22T23:23:18.924Z,23.98
2023-04-22T23:25:47.866Z,24.17
2023-04-22T23:28:17.047Z,29.30
2023-04-22T23:30:47.298Z,28.85
2023-04-22T23:33:32.074Z,25.63
2023-04-22T23:36:01.816Z,24.88
2023-04-22T23:38:31.793Z,29.58
2023-04-22T23:41:00.047Z,27.35
2023-04-22T23:43:28.329Z,23.40
2023-04-22T23:45:56.757Z,24.27
2023-04-22T23:48:25.507Z,25.13
2023-04-22T23:50:56.310Z,23.30
2023-04-22T23:53:24.528Z,23.08
2023-04-22T23:55:55.168Z,19.63
2023-04-22T23:58:23.418Z,17.65
